Time;durP1;ratioP1;P1;durP2;ratioP2;P2;SDS_P1;SDS_P2;PMS_P1;PMS_P2;Temp;Humidity;BMP_temperature;BMP_pressure;BME280_temperature;BME280_humidity;BME280_pressure;Samples;Min_cycle;Max_cycle;Signal;HPM_P1;HPM_P2
2021/11/04 05:21:19;;;;;;;;;11.00;10.00;;;;;15.56;50.60;97470.09;6107059;28;98221;-67
2021/11/04 05:24:23;;;;;;;;;9.00;8.00;;;;;15.57;50.33;97472.53;6136970;28;97297;-69
2021/11/04 05:27:28;;;;;;;;;10.00;8.00;;;;;15.64;50.10;97465.94;6139506;28;96916;-70
2021/11/04 05:30:32;;;;;;;;;10.40;9.40;;;;;15.65;50.16;97472.97;6139240;28;97365;-67
2021/11/04 05:33:35;;;;;;;;;11.00;10.00;;;;;15.72;50.01;97449.00;6140923;28;96546;-67
2021/11/04 05:36:40;;;;;;;;;9.20;8.80;;;;;15.71;50.09;97444.66;6122996;28;98897;-67
2021/11/04 05:39:44;;;;;;;;;11.40;11.00;;;;;15.69;50.03;97434.06;6151711;28;97955;-69
2021/11/04 05:42:49;;;;;;;;;10.00;9.00;;;;;15.65;50.08;97416.72;6136016;28;98754;-66
2021/11/04 05:45:52;;;;;;;;;10.40;8.80;;;;;15.61;50.13;97412.97;6120781;28;98285;-68
2021/11/04 05:48:56;;;;;;;;;10.60;9.60;;;;;15.59;50.10;97407.84;6133482;28;96429;-66
2021/11/04 05:52:00;;;;;;;;;10.50;9.50;;;;;15.59;50.32;97396.16;6134478;28;97815;-68
2021/11/04 05:55:05;;;;;;;;;9.00;9.00;;;;;15.43;50.57;97398.22;6136235;28;97107;-67
2021/11/04 05:58:08;;;;;;;;;9.40;8.40;;;;;15.59;50.32;97380.66;6139485;28;98053;-69
2021/11/04 06:01:11;;;;;;;;;8.80;8.00;;;;;15.58;50.40;97368.22;6136152;28;99499;-67
2021/11/04 06:04:14;;;;;;;;;12.80;10.40;;;;;15.53;50.49;97365.56;6135432;28;97533;-67
2021/11/04 06:07:19;;;;;;;;;9.00;9.00;;;;;15.47;50.72;97363.97;6136269;28;96890;-69
2021/11/04 06:10:23;;;;;;;;;8.00;8.00;;;;;15.50;50.84;97355.22;6147193;28;97354;-67
2021/11/04 06:13:26;;;;;;;;;7.60;7.60;;;;;15.58;50.82;97356.53;6138740;28;96912;-67
2021/11/04 06:16:29;;;;;;;;;8.40;8.40;;;;;15.49;50.69;97325.66;6120030;28;98575;-69
2021/11/04 06:19:33;;;;;;;;;9.00;8.00;;;;;15.69;50.31;97355.28;6135497;28;99467;-67
2021/11/04 06:22:38;;;;;;;;;8.00;8.00;;;;;15.55;50.25;97330.75;6135084;28;98220;-67
2021/11/04 06:25:41;;;;;;;;;10.00;10.00;;;;;15.80;50.09;97361.41;6135961;28;99588;-67
2021/11/04 06:28:44;;;;;;;;;9.00;7.20;;;;;15.86;49.98;97354.81;6138814;28;97477;-67
2021/11/04 06:31:48;;;;;;;;;9.00;9.00;;;;;15.86;49.94;97361.03;6131017;28;97335;-68
2021/11/04 06:34:51;;;;;;;;;8.00;8.00;;;;;15.79;50.03;97354.34;6136639;28;96908;-67
2021/11/04 06:37:56;;;;;;;;;9.00;9.00;;;;;15.88;49.99;97363.47;6139151;28;97314;-68
2021/11/04 06:40:59;;;;;;;;;12.00;10.00;;;;;15.97;49.85;97367.16;6137955;28;97442;-69
2021/11/04 06:44:03;;;;;;;;;10.40;10.00;;;;;15.97;49.82;97373.41;6137656;28;97302;-68
2021/11/04 06:47:10;;;;;;;;;10.00;9.00;;;;;16.00;49.98;97372.00;6119844;28;97212;-70
2021/11/04 06:50:16;;;;;;;;;10.00;8.80;;;;;16.05;49.95;97358.34;6137238;28;97016;-68
2021/11/04 06:53:25;;;;;;;;;9.20;8.00;;;;;16.13;49.84;97344.06;6135831;28;98378;-68
2021/11/04 06:56:37;;;;;;;;;10.00;8.75;;;;;16.21;49.69;97343.41;6138451;28;96527;-67
2021/11/04 06:59:42;;;;;;;;;9.00;7.60;;;;;16.23;49.87;97345.81;6132327;28;98439;-69
2021/11/04 07:02:52;;;;;;;;;8.00;8.00;;;;;16.26;50.02;97335.19;6145272;28;96680;-69
2021/11/04 07:05:59;;;;;;;;;8.20;8.00;;;;;16.39;49.60;97331.69;6133298;28;97087;-66
2021/11/04 07:09:07;;;;;;;;;8.00;7.25;;;;;16.46;49.65;97356.63;6135188;28;97866;-65
2021/11/04 07:12:12;;;;;;;;;10.00;8.50;;;;;16.51;49.90;97354.91;6136633;28;97307;-65
2021/11/04 07:15:17;;;;;;;;;7.00;7.00;;;;;16.60;49.79;97358.59;6135087;28;99071;-66
2021/11/04 07:18:20;;;;;;;;;8.00;7.00;;;;;16.77;49.57;97337.06;6137094;28;96822;-66
2021/11/04 07:21:35;;;;;;;;;9.00;7.00;;;;;16.92;49.34;97350.41;6138112;28;97039;-66
2021/11/04 07:24:46;;;;;;;;;8.00;8.00;;;;;17.05;49.04;97360.53;6138125;28;97120;-68
2021/11/04 07:27:57;;;;;;;;;7.00;6.00;;;;;17.04;49.17;97344.50;6138539;28;96972;-68
2021/11/04 07:31:00;;;;;;;;;8.00;8.00;;;;;17.21;48.91;97375.47;6136699;28;97817;-69
2021/11/04 07:34:05;;;;;;;;;7.00;7.00;;;;;17.30;48.60;97373.66;6115332;28;97871;-67
2021/11/04 07:37:10;;;;;;;;;10.00;9.00;;;;;17.37;48.55;97356.13;6133545;28;96973;-69
2021/11/04 07:40:17;;;;;;;;;10.75;8.00;;;;;17.41;48.06;97347.03;6136459;28;97415;-67
2021/11/04 07:43:20;;;;;;;;;8.00;8.00;;;;;17.39;48.05;97348.47;6132275;28;96564;-67
2021/11/04 07:46:23;;;;;;;;;8.60;7.40;;;;;17.44;48.10;97346.44;6133407;28;97316;-68
2021/11/04 07:49:27;;;;;;;;;7.00;7.00;;;;;17.45;47.92;97339.06;6139303;28;96937;-68
2021/11/04 07:52:30;;;;;;;;;8.00;8.00;;;;;17.47;47.99;97318.59;6119153;28;96720;-68
2021/11/04 07:55:35;;;;;;;;;9.00;8.00;;;;;17.51;48.15;97329.66;6132376;28;96676;-68
2021/11/04 07:58:38;;;;;;;;;7.60;6.60;;;;;17.52;47.84;97320.41;6119655;28;97158;-68
2021/11/04 08:01:41;;;;;;;;;9.00;8.00;;;;;17.55;48.07;97308.88;6127411;28;96913;-67
2021/11/04 08:04:45;;;;;;;;;8.00;8.00;;;;;17.55;48.12;97312.41;6119164;28;96927;-67
2021/11/04 08:07:48;;;;;;;;;8.60;8.00;;;;;17.67;47.75;97309.22;6139072;28;97568;-69
2021/11/04 08:10:53;;;;;;;;;8.00;7.25;;;;;17.79;47.65;97290.38;6134574;28;98557;-66
2021/11/04 08:13:57;;;;;;;;;8.00;7.80;;;;;17.87;47.57;97280.69;6135955;28;97437;-67
2021/11/04 08:17:00;;;;;;;;;8.00;8.00;;;;;17.92;47.66;97286.03;6145491;28;97583;-68
2021/11/04 08:20:04;;;;;;;;;8.00;7.00;;;;;17.96;47.43;97290.56;6135429;28;97843;-65
2021/11/04 08:23:11;;;;;;;;;8.00;7.20;;;;;18.02;47.40;97304.88;6135048;28;96590;-69
2021/11/04 08:26:16;;;;;;;;;8.00;7.00;;;;;18.07;47.12;97305.56;6145163;28;96531;-69
2021/11/04 08:29:19;;;;;;;;;8.60;7.60;;;;;18.12;47.37;97286.38;6130803;28;96570;-68
2021/11/04 08:32:23;;;;;;;;;6.40;6.40;;;;;18.21;47.43;97282.91;6115346;28;99506;-68
2021/11/04 08:35:26;;;;;;;;;6.80;6.80;;;;;18.33;47.17;97266.75;6141555;28;97851;-67
2021/11/04 08:38:30;;;;;;;;;7.00;6.00;;;;;18.38;46.39;97283.81;6131183;28;97653;-67
2021/11/04 08:41:35;;;;;;;;;5.40;4.40;;;;;18.29;46.96;97254.88;6132824;28;96678;-67
2021/11/04 08:44:40;;;;;;;;;7.00;6.40;;;;;18.21;46.87;97267.34;6136900;28;96632;-67
2021/11/04 08:47:43;;;;;;;;;5.00;5.00;;;;;18.18;47.30;97246.94;6137623;28;96672;-68
2021/11/04 08:50:48;;;;;;;;;4.60;4.00;;;;;18.28;46.81;97270.41;6122809;28;97763;-69
2021/11/04 08:53:52;;;;;;;;;5.00;5.00;;;;;18.55;46.24;97253.94;6133032;28;97162;-70
2021/11/04 08:57:15;;;;;;;;;5.00;5.00;;;;;18.76;45.61;97240.56;6134491;28;97483;-71
2021/11/04 09:00:19;;;;;;;;;4.00;3.00;;;;;18.81;45.83;97234.97;6136319;28;97198;-69
2021/11/04 09:03:24;;;;;;;;;6.00;5.00;;;;;19.17;44.92;97223.84;6128916;28;97269;-69
2021/11/04 09:06:28;;;;;;;;;5.00;5.00;;;;;19.47;44.51;97216.69;6135056;28;96974;-68
2021/11/04 09:09:31;;;;;;;;;6.00;5.00;;;;;19.61;44.26;97211.91;6134658;28;97647;-65
2021/11/04 09:12:37;;;;;;;;;6.80;6.00;;;;;19.75;44.04;97219.94;6134479;28;97229;-67
2021/11/04 09:15:40;;;;;;;;;5.00;4.80;;;;;19.83;43.86;97243.75;6129114;28;96881;-68
2021/11/04 09:18:43;;;;;;;;;6.00;5.00;;;;;20.06;42.85;97258.88;6128996;28;97045;-65
2021/11/04 09:21:46;;;;;;;;;6.00;6.00;;;;;20.21;42.50;97252.91;6139592;28;98137;-69
2021/11/04 09:24:50;;;;;;;;;6.00;6.00;;;;;20.49;42.61;97236.16;6137933;28;97076;-65
2021/11/04 09:27:56;;;;;;;;;6.00;5.80;;;;;20.61;41.78;97230.81;6136586;28;96860;-65
2021/11/04 09:31:00;;;;;;;;;5.00;5.00;;;;;20.33;42.42;97221.38;6137302;28;97774;-68
2021/11/04 09:34:04;;;;;;;;;4.00;3.00;;;;;20.06;42.86;97219.78;6137045;28;97001;-67
2021/11/04 09:37:07;;;;;;;;;4.25;4.25;;;;;20.13;42.75;97209.97;6141465;28;97401;-67
2021/11/04 09:40:12;;;;;;;;;4.00;4.00;;;;;20.18;42.98;97212.50;6142315;28;96832;-66
2021/11/04 09:43:20;;;;;;;;;4.40;4.40;;;;;20.21;42.62;97225.56;6135613;28;96585;-66
2021/11/04 09:46:23;;;;;;;;;4.20;4.00;;;;;20.51;42.26;97214.75;6138890;28;97628;-66
2021/11/04 09:49:28;;;;;;;;;5.00;5.00;;;;;20.45;41.90;97218.78;6132702;28;97987;-66
2021/11/04 09:52:34;;;;;;;;;4.00;4.00;;;;;20.68;42.33;97207.25;6136486;28;98346;-68
2021/11/04 09:55:37;;;;;;;;;5.00;5.00;;;;;20.64;42.05;97195.38;6139295;28;98926;-65
2021/11/04 09:58:42;;;;;;;;;6.00;5.00;;;;;21.07;41.66;97219.81;6131673;28;97469;-67
2021/11/04 10:01:48;;;;;;;;;5.60;5.00;;;;;21.30;41.61;97208.63;6133276;28;96916;-66
2021/11/04 10:04:52;;;;;;;;;7.00;6.00;;;;;21.47;41.14;97205.75;6130917;28;97891;-67
2021/11/04 10:07:55;;;;;;;;;6.00;5.00;;;;;21.85;40.64;97217.41;6131841;28;97659;-67
2021/11/04 10:11:06;;;;;;;;;7.00;6.00;;;;;22.10;39.93;97223.84;6136451;28;98975;-68
2021/11/04 10:14:13;;;;;;;;;6.40;6.00;;;;;22.29;40.41;97231.59;6139744;28;96629;-68
2021/11/04 10:17:27;;;;;;;;;5.00;5.00;;;;;22.39;39.92;97245.69;6117858;28;98840;-65
2021/11/04 10:20:30;;;;;;;;;7.00;6.60;;;;;22.43;40.05;97249.38;6137324;28;97056;-66
2021/11/04 10:23:37;;;;;;;;;7.80;7.00;;;;;22.41;39.63;97259.91;6137993;28;97529;-68
2021/11/04 10:26:41;;;;;;;;;7.25;7.00;;;;;22.38;39.97;97252.31;6138524;28;96677;-68
2021/11/04 10:29:46;;;;;;;;;7.00;6.00;;;;;22.38;40.04;97246.84;6124621;28;97559;-67
2021/11/04 10:32:49;;;;;;;;;7.20;6.20;;;;;22.36;39.78;97249.13;6122616;28;99503;-67
2021/11/04 10:36:00;;;;;;;;;7.75;6.75;;;;;22.29;39.63;97253.53;6122401;28;98048;-67
2021/11/04 10:39:04;;;;;;;;;6.00;5.00;;;;;22.25;40.02;97230.66;6125193;28;96785;-68
2021/11/04 10:42:08;;;;;;;;;7.40;7.00;;;;;22.19;39.90;97229.25;6134297;28;96692;-68
2021/11/04 10:45:24;;;;;;;;;7.00;6.40;;;;;22.10;40.40;97239.50;6122475;28;97452;-66
2021/11/04 10:48:29;;;;;;;;;9.00;8.00;;;;;21.99;40.64;97250.13;6122571;28;97608;-69
2021/11/04 10:51:34;;;;;;;;;6.00;6.00;;;;;21.96;40.77;97246.09;6121872;28;96577;-70
2021/11/04 10:54:40;;;;;;;;;7.60;6.60;;;;;21.85;40.85;97247.59;6127924;28;97329;-69
2021/11/04 10:57:44;;;;;;;;;7.00;6.80;;;;;21.83;41.22;97238.91;6119208;28;97780;-68
2021/11/04 11:00:48;;;;;;;;;7.00;6.00;;;;;21.67;41.43;97234.34;6132077;28;97512;-68
2021/11/04 11:03:59;;;;;;;;;6.20;5.20;;;;;21.60;42.00;97230.19;6135564;28;97329;-68
2021/11/04 11:07:02;;;;;;;;;9.00;6.00;;;;;21.67;41.87;97215.94;6127634;28;96641;-67
2021/11/04 11:10:06;;;;;;;;;6.00;5.60;;;;;21.41;42.09;97180.47;6136056;28;97463;-69
2021/11/04 11:13:10;;;;;;;;;5.00;4.00;;;;;21.22;42.21;97182.88;6132511;28;96504;-68
2021/11/04 11:16:17;;;;;;;;;5.00;4.40;;;;;21.04;42.15;97200.50;6137895;28;96600;-69
2021/11/04 11:19:21;;;;;;;;;4.00;4.00;;;;;20.89;42.60;97201.88;6129158;28;98412;-67
2021/11/04 11:22:25;;;;;;;;;4.00;4.00;;;;;20.71;43.13;97192.94;6136274;28;96840;-69
2021/11/04 11:25:33;;;;;;;;;4.00;3.40;;;;;20.80;42.68;97209.31;6138802;28;98136;-66
2021/11/04 11:28:39;;;;;;;;;3.25;3.25;;;;;20.79;42.57;97206.91;6115471;28;98395;-66
2021/11/04 11:31:52;;;;;;;;;4.00;3.80;;;;;21.17;42.45;97221.41;6129255;28;97270;-67
2021/11/04 11:35:17;;;;;;;;;3.00;3.00;;;;;21.46;42.10;97237.06;6133844;28;97192;-66
2021/11/04 11:38:20;;;;;;;;;2.00;2.00;;;;;21.74;41.31;97234.63;6139441;28;98142;-66
2021/11/04 11:41:24;;;;;;;;;4.00;4.00;;;;;21.94;41.19;97225.63;6134219;28;99402;-66
2021/11/04 11:44:35;;;;;;;;;5.00;4.00;;;;;22.08;41.08;97217.91;6136759;28;97338;-67
2021/11/04 11:47:42;;;;;;;;;4.00;4.00;;;;;22.30;40.89;97220.28;6131233;28;97097;-65
2021/11/04 11:50:47;;;;;;;;;4.40;4.00;;;;;22.50;39.92;97224.13;6130398;28;96850;-66
2021/11/04 11:53:53;;;;;;;;;5.00;5.00;;;;;22.61;39.97;97208.00;6137967;28;97196;-68
2021/11/04 11:57:09;;;;;;;;;4.00;3.60;;;;;22.82;40.25;97222.50;6138279;28;97085;-67
2021/11/04 12:00:13;;;;;;;;;4.60;4.00;;;;;22.99;39.78;97232.47;6137602;28;96626;-66
2021/11/04 12:03:51;;;;;;;;;4.00;4.00;;;;;22.90;39.66;97224.34;6132195;28;97505;-66
2021/11/04 12:06:58;;;;;;;;;4.00;3.40;;;;;22.97;39.41;97227.31;6147378;28;97829;-68
2021/11/04 12:10:01;;;;;;;;;6.60;5.40;;;;;22.77;39.34;97250.97;6133033;28;96675;-67
2021/11/04 12:13:05;;;;;;;;;7.00;5.00;;;;;22.84;39.70;97244.94;6135242;28;97180;-66
2021/11/04 12:16:17;;;;;;;;;5.00;5.00;;;;;22.76;40.06;97229.38;6137822;28;97201;-68
2021/11/04 12:19:20;;;;;;;;;4.00;4.00;;;;;22.73;40.10;97233.56;6135943;28;96782;-67
2021/11/04 12:22:30;;;;;;;;;5.00;4.00;;;;;22.70;40.07;97244.41;6134310;28;97474;-66
2021/11/04 12:25:35;;;;;;;;;5.00;5.00;;;;;22.45;40.97;97246.28;6120226;28;96679;-64
2021/11/04 12:28:43;;;;;;;;;4.00;4.00;;;;;22.46;41.14;97234.97;6137215;28;97533;-66
2021/11/04 12:31:48;;;;;;;;;6.00;5.00;;;;;23.14;40.18;97251.03;6127686;28;98406;-67
2021/11/04 12:34:57;;;;;;;;;5.00;4.00;;;;;23.45;39.37;97239.50;6107157;28;97127;-65
2021/11/04 12:38:01;;;;;;;;;4.20;4.00;;;;;23.59;39.37;97254.50;6119849;28;97784;-64
2021/11/04 12:41:06;;;;;;;;;2.00;2.00;;;;;24.25;36.82;97250.56;6119708;28;98490;-67
2021/11/04 12:44:12;;;;;;;;;4.00;3.00;;;;;24.83;35.36;97254.53;6133857;28;97930;-69
2021/11/04 12:47:18;;;;;;;;;2.20;2.00;;;;;25.36;35.84;97258.69;6131773;28;100016;-67
2021/11/04 12:50:25;;;;;;;;;2.50;2.00;;;;;25.76;35.00;97270.28;6128821;28;97588;-68
2021/11/04 12:53:49;;;;;;;;;2.25;2.00;;;;;25.86;34.05;97278.03;6117422;28;96716;-69
2021/11/04 12:57:08;;;;;;;;;1.00;1.00;;;;;25.74;32.39;97293.91;6137981;28;97209;-65
2021/11/04 13:00:15;;;;;;;;;0.00;0.00;;;;;25.85;31.06;97281.16;6145310;28;97443;-65
2021/11/04 13:03:32;;;;;;;;;0.00;0.00;;;;;26.22;30.50;97265.81;6149548;28;98482;-66
2021/11/04 13:06:52;;;;;;;;;0.00;0.00;;;;;26.38;30.34;97279.56;6143970;28;96614;-67
2021/11/04 13:09:58;;;;;;;;;1.00;0.25;;;;;26.46;30.11;97288.78;6134935;28;97143;-69
2021/11/04 13:13:05;;;;;;;;;0.00;0.00;;;;;26.50;30.00;97295.19;6141102;28;96982;-69
2021/11/04 13:16:22;;;;;;;;;0.25;0.00;;;;;26.23;29.79;97294.25;6134665;28;96640;-70
2021/11/04 13:19:25;;;;;;;;;0.00;0.00;;;;;26.17;30.22;97292.91;6141559;28;96980;-68
2021/11/04 13:22:29;;;;;;;;;0.00;0.00;;;;;25.91;30.13;97292.69;6141149;28;97413;-68
2021/11/04 13:25:36;;;;;;;;;1.00;0.00;;;;;25.78;30.59;97294.78;6141339;28;97534;-69
2021/11/04 13:28:40;;;;;;;;;0.50;0.50;;;;;25.69;31.18;97327.31;6132084;28;99053;-67
2021/11/04 13:31:43;;;;;;;;;0.00;0.00;;;;;25.10;31.48;97321.84;6140677;28;96643;-67
2021/11/04 13:34:47;;;;;;;;;0.00;0.00;;;;;24.73;31.84;97326.72;6136843;28;97249;-66
2021/11/04 13:38:07;;;;;;;;;0.40;0.00;;;;;24.44;31.97;97297.53;6138246;28;97166;-68
2021/11/04 13:41:12;;;;;;;;;0.00;0.00;;;;;24.26;32.50;97340.31;6131398;28;97533;-66
2021/11/04 13:44:20;;;;;;;;;0.00;0.00;;;;;24.05;32.53;97335.72;6127933;28;96620;-66
2021/11/04 13:47:33;;;;;;;;;1.00;0.00;;;;;23.88;32.70;97358.00;6135869;28;97582;-70
2021/11/04 13:50:40;;;;;;;;;0.00;0.00;;;;;23.80;32.74;97358.91;6130494;28;97121;-67
2021/11/04 13:53:43;;;;;;;;;0.00;0.00;;;;;23.73;32.38;97364.19;6132946;28;98101;-63
2021/11/04 13:56:50;;;;;;;;;1.00;1.00;;;;;23.83;32.09;97357.44;6130707;28;96997;-64
2021/11/04 13:59:56;;;;;;;;;0.00;0.00;;;;;23.93;32.15;97359.72;6135782;28;97521;-67
2021/11/04 14:03:02;;;;;;;;;1.00;0.00;;;;;23.93;31.08;97357.78;6134686;28;97072;-66
2021/11/04 14:06:07;;;;;;;;;0.00;0.00;;;;;23.73;29.87;97375.22;6110731;28;97376;-66
2021/11/04 14:09:11;;;;;;;;;0.00;0.00;;;;;23.79;29.79;97378.53;6122561;28;99443;-68
2021/11/04 14:12:16;;;;;;;;;1.00;1.00;;;;;23.81;29.69;97385.28;6132718;28;96662;-65
2021/11/04 14:15:21;;;;;;;;;0.00;0.00;;;;;23.93;29.89;97401.00;6139342;28;96756;-67
2021/11/04 14:18:26;;;;;;;;;2.00;1.00;;;;;24.01;30.03;97402.81;6137721;28;96611;-65
2021/11/04 14:21:30;;;;;;;;;1.00;1.00;;;;;23.82;30.36;97422.66;6139904;28;96874;-65
2021/11/04 14:24:33;;;;;;;;;1.00;1.00;;;;;23.75;30.20;97423.22;6117082;28;99542;-64
2021/11/04 14:27:48;;;;;;;;;0.00;0.00;;;;;23.70;30.57;97439.19;6133900;28;96798;-67
2021/11/04 14:30:54;;;;;;;;;1.00;1.00;;;;;23.63;30.46;97444.44;6132368;28;97585;-67
2021/11/04 14:33:57;;;;;;;;;1.00;0.50;;;;;23.54;30.48;97463.78;6145693;28;97451;-68
2021/11/04 14:37:01;;;;;;;;;2.00;2.00;;;;;23.24;34.75;97487.84;6134820;28;97415;-67
2021/11/04 14:40:06;;;;;;;;;3.00;2.20;;;;;23.14;36.33;97496.50;6134240;28;96853;-65
2021/11/04 14:43:10;;;;;;;;;2.40;2.40;;;;;22.93;37.55;97503.16;6138848;28;96888;-65
2021/11/04 14:46:14;;;;;;;;;2.50;2.50;;;;;22.58;38.11;97503.34;6132330;28;98403;-68
2021/11/04 14:49:17;;;;;;;;;3.00;3.00;;;;;22.37;38.35;97519.81;6136654;28;97463;-66
2021/11/04 14:52:21;;;;;;;;;4.00;3.20;;;;;22.12;39.11;97517.19;6118654;28;97863;-68
2021/11/04 14:55:26;;;;;;;;;3.00;2.40;;;;;21.86;39.43;97526.28;6139477;28;96612;-65
2021/11/04 14:58:31;;;;;;;;;3.00;3.00;;;;;21.49;39.63;97516.06;6127025;28;97469;-66
2021/11/04 15:01:34;;;;;;;;;4.00;3.00;;;;;21.19;40.40;97539.81;6133064;28;97164;-67
2021/11/04 15:04:40;;;;;;;;;3.00;3.00;;;;;21.04;40.48;97540.25;6136439;28;96678;-66
2021/11/04 15:07:44;;;;;;;;;4.00;4.00;;;;;20.83;40.32;97537.34;6133708;28;96616;-67
2021/11/04 15:10:54;;;;;;;;;4.00;3.25;;;;;20.75;40.49;97549.09;6134577;28;97698;-67
2021/11/04 15:14:00;;;;;;;;;3.00;2.40;;;;;20.60;40.56;97572.25;6129797;28;98371;-67
2021/11/04 15:17:03;;;;;;;;;4.00;4.00;;;;;20.47;40.80;97569.66;6127417;28;97157;-65
2021/11/04 15:20:08;;;;;;;;;3.00;3.00;;;;;20.40;41.18;97575.59;6139405;28;96736;-66
2021/11/04 15:23:12;;;;;;;;;4.25;3.50;;;;;20.23;41.23;97580.97;6133176;28;96799;-64
2021/11/04 15:26:16;;;;;;;;;3.00;3.00;;;;;20.07;41.40;97583.31;6134505;28;97188;-66
2021/11/04 15:29:21;;;;;;;;;4.00;3.00;;;;;19.93;41.61;97584.53;6136228;28;97389;-67
2021/11/04 15:32:24;;;;;;;;;3.25;3.00;;;;;19.81;41.46;97587.81;6132920;28;97089;-64
2021/11/04 15:35:27;;;;;;;;;4.00;3.40;;;;;19.70;41.85;97597.41;6125017;28;96644;-65
2021/11/04 15:38:31;;;;;;;;;6.00;5.00;;;;;19.60;41.95;97601.19;6131413;28;97427;-65
2021/11/04 15:41:34;;;;;;;;;4.60;4.00;;;;;19.55;42.05;97625.13;6133116;28;97569;-66
2021/11/04 15:44:39;;;;;;;;;4.00;3.00;;;;;19.42;42.21;97619.38;6126794;28;97569;-66
2021/11/04 15:47:45;;;;;;;;;4.00;4.00;;;;;19.33;42.45;97617.69;6125209;28;97151;-66
2021/11/04 15:51:08;;;;;;;;;4.00;3.00;;;;;19.26;42.51;97637.22;6125164;28;97482;-62
2021/11/04 15:54:12;;;;;;;;;4.00;4.00;;;;;19.15;42.79;97635.06;6113812;28;98026;-66
2021/11/04 15:57:15;;;;;;;;;3.60;3.60;;;;;19.06;42.57;97639.63;6128764;28;97377;-65
2021/11/04 16:00:20;;;;;;;;;3.60;3.00;;;;;19.03;42.58;97649.22;6130642;28;97787;-66
2021/11/04 16:03:23;;;;;;;;;3.00;2.50;;;;;18.85;42.68;97652.91;6128912;28;97527;-67
2021/11/04 16:06:38;;;;;;;;;4.00;4.00;;;;;18.70;43.27;97667.66;6131249;28;97190;-67
2021/11/04 16:09:42;;;;;;;;;4.00;4.00;;;;;18.67;43.14;97670.22;6130356;28;97555;-66
2021/11/04 16:53:06;;;;;;;;;3.00;3.00;;;;;18.54;41.69;97762.69;6687760;22;97469;-67
2021/11/04 16:56:12;;;;;;;;;4.00;3.00;;;;;18.29;40.63;97756.81;6212011;28;96883;-65
2021/11/04 16:59:15;;;;;;;;;3.60;3.00;;;;;18.27;40.32;97762.59;6196518;28;97533;-64
2021/11/04 17:02:27;;;;;;;;;3.00;2.40;;;;;18.42;40.50;97756.06;6196155;28;97052;-67
2021/11/04 17:05:30;;;;;;;;;2.80;2.80;;;;;18.49;40.05;97770.13;6212444;28;97520;-65
2021/11/04 17:08:35;;;;;;;;;4.00;3.00;;;;;18.56;39.58;97790.50;6212723;28;97327;-64
2021/11/04 17:11:38;;;;;;;;;4.00;3.40;;;;;18.57;38.89;97804.94;6202788;28;97008;-64
2021/11/04 17:14:42;;;;;;;;;3.40;3.00;;;;;18.64;38.57;97810.81;6167943;28;97354;-63
2021/11/04 17:17:46;;;;;;;;;4.00;4.00;;;;;18.51;38.38;97806.13;6209228;28;97373;-66
2021/11/04 17:20:50;;;;;;;;;4.00;4.00;;;;;18.44;38.26;97800.22;6192428;28;97390;-64
2021/11/04 17:23:54;;;;;;;;;4.00;4.00;;;;;18.40;38.23;97815.56;6183202;28;97496;-65
2021/11/04 17:26:59;;;;;;;;;5.00;4.00;;;;;18.31;38.58;97820.91;6194598;28;96734;-66
2021/11/04 17:30:03;;;;;;;;;5.75;4.00;;;;;18.33;38.73;97834.22;6208608;28;97708;-63
2021/11/04 17:33:06;;;;;;;;;6.33;5.33;;;;;18.30;38.92;97830.19;6209931;28;97285;-63
2021/11/04 17:36:10;;;;;;;;;6.50;6.00;;;;;18.12;39.10;97822.84;6204063;28;96637;-65
2021/11/04 17:39:15;;;;;;;;;7.20;6.80;;;;;18.22;39.24;97836.34;6188868;28;97733;-66
2021/11/04 17:42:18;;;;;;;;;7.00;6.00;;;;;18.08;39.17;97857.28;6172280;28;96722;-65
2021/11/04 17:45:22;;;;;;;;;8.00;7.00;;;;;18.04;39.06;97856.22;6205212;28;96748;-66
2021/11/04 17:48:41;;;;;;;;;7.00;6.00;;;;;17.90;39.12;97858.88;6180237;28;99518;-64
2021/11/04 17:51:44;;;;;;;;;6.00;5.00;;;;;17.75;39.21;97862.63;6202505;28;97221;-63
2021/11/04 17:54:49;;;;;;;;;6.00;6.00;;;;;17.66;39.24;97879.91;6174656;28;100184;-66
2021/11/04 17:57:53;;;;;;;;;6.60;5.00;;;;;17.53;39.34;97867.78;6184430;28;98377;-66
2021/11/04 18:00:58;;;;;;;;;8.40;7.40;;;;;17.42;39.49;97879.91;6193530;28;96918;-65
2021/11/04 18:04:01;;;;;;;;;5.00;4.00;;;;;17.41;39.32;97888.38;6210888;28;96775;-63
2021/11/04 18:07:04;;;;;;;;;8.00;6.00;;;;;17.34;39.61;97877.84;6193882;28;98728;-64
2021/11/04 18:10:10;;;;;;;;;7.00;7.00;;;;;17.27;39.42;97882.81;6194321;28;97355;-66
2021/11/04 18:13:14;;;;;;;;;7.75;5.50;;;;;17.20;39.76;97893.25;6211709;28;96442;-66
2021/11/04 18:16:18;;;;;;;;;7.60;6.40;;;;;17.12;39.60;97875.59;6206977;28;97110;-65
2021/11/04 18:19:21;;;;;;;;;6.00;6.00;;;;;17.08;39.87;97882.72;6211019;28;97064;-64
2021/11/04 18:22:26;;;;;;;;;7.00;7.00;;;;;17.06;39.85;97882.19;6211280;28;98522;-65
2021/11/04 18:25:31;;;;;;;;;7.80;6.00;;;;;17.00;39.83;97886.09;6178024;28;97811;-66
2021/11/04 18:28:35;;;;;;;;;5.60;5.00;;;;;16.96;39.91;97876.84;6191439;28;97323;-63
2021/11/04 18:31:38;;;;;;;;;6.00;6.00;;;;;16.89;39.69;97887.28;6197176;28;97456;-65
2021/11/04 18:34:44;;;;;;;;;7.60;7.00;;;;;16.85;39.65;97892.50;6193526;28;96898;-63
2021/11/04 18:37:47;;;;;;;;;9.00;7.00;;;;;16.83;39.82;97889.22;6191124;28;97956;-63
2021/11/04 18:40:52;;;;;;;;;9.00;7.00;;;;;16.81;39.55;97890.63;6186038;28;97831;-64
2021/11/04 18:43:55;;;;;;;;;9.00;7.40;;;;;16.71;38.90;97891.50;6182513;28;96897;-66
2021/11/04 18:46:59;;;;;;;;;6.00;5.00;;;;;16.66;38.14;97907.09;6189539;28;97770;-66
2021/11/04 18:50:03;;;;;;;;;5.00;4.00;;;;;16.61;37.47;97909.84;6198238;28;97655;-66
2021/11/04 18:53:07;;;;;;;;;5.00;5.00;;;;;16.50;36.79;97924.59;6177946;28;98488;-67
2021/11/04 18:56:11;;;;;;;;;4.75;4.00;;;;;16.56;36.79;97926.19;6184630;28;97601;-64
2021/11/04 18:59:15;;;;;;;;;3.40;3.00;;;;;16.67;35.94;97927.75;6170370;28;96724;-66
2021/11/04 19:02:18;;;;;;;;;4.00;3.80;;;;;16.68;35.37;97932.09;6179724;28;97519;-65
2021/11/04 19:05:22;;;;;;;;;4.00;3.60;;;;;16.70;34.64;97940.78;6162680;28;97113;-63
2021/11/04 19:08:26;;;;;;;;;3.00;3.00;;;;;16.83;34.60;97951.03;6178483;28;97976;-67
2021/11/04 19:11:31;;;;;;;;;3.80;3.00;;;;;16.75;34.37;97962.53;6183168;28;96670;-66
2021/11/04 19:14:34;;;;;;;;;4.00;3.00;;;;;16.78;34.36;97957.31;6156792;28;98578;-64
2021/11/04 19:17:38;;;;;;;;;4.00;3.25;;;;;16.53;34.33;97962.91;6177172;28;96601;-65
2021/11/04 19:20:41;;;;;;;;;4.00;4.00;;;;;16.51;34.56;97976.00;6177409;28;96769;-63
2021/11/04 19:23:45;;;;;;;;;3.00;2.00;;;;;16.54;34.53;97985.50;6184963;28;97172;-65
2021/11/04 19:26:49;;;;;;;;;4.00;3.00;;;;;16.60;34.43;97985.22;6165973;28;97435;-64
2021/11/04 19:29:54;;;;;;;;;5.00;4.00;;;;;16.65;34.89;97987.91;6169681;28;98201;-64
2021/11/04 19:32:57;;;;;;;;;4.00;4.00;;;;;16.56;34.43;97989.56;6181144;28;97344;-67
2021/11/04 19:36:01;;;;;;;;;3.00;3.00;;;;;16.59;34.50;97989.03;6169628;28;97553;-66
2021/11/04 19:39:05;;;;;;;;;2.00;2.00;;;;;16.51;34.35;97989.59;6166674;28;97408;-69
2021/11/04 19:42:10;;;;;;;;;3.00;3.00;;;;;16.37;34.51;97996.75;6169336;28;96745;-67
2021/11/04 19:45:15;;;;;;;;;4.00;3.75;;;;;16.48;34.41;97987.44;6148859;28;97681;-65
2021/11/04 19:48:18;;;;;;;;;3.00;3.00;;;;;16.49;34.44;97999.94;6168870;28;98342;-65
2021/11/04 19:51:21;;;;;;;;;4.00;3.00;;;;;16.42;34.46;98002.16;6171206;28;98421;-65
2021/11/04 19:54:24;;;;;;;;;4.00;4.00;;;;;16.41;34.54;98014.16;6166579;28;97309;-67
2021/11/04 19:57:29;;;;;;;;;3.00;3.00;;;;;16.26;34.70;97987.84;6164945;28;97390;-70
2021/11/04 20:00:33;;;;;;;;;3.00;3.00;;;;;16.48;34.46;98001.03;6157456;28;98431;-68
2021/11/04 20:03:38;;;;;;;;;4.00;3.00;;;;;16.57;34.72;97990.38;6175764;28;96625;-67
2021/11/04 20:06:41;;;;;;;;;4.00;3.00;;;;;16.58;34.27;98000.16;6180947;28;96700;-68
2021/11/04 20:09:45;;;;;;;;;3.00;3.00;;;;;16.34;34.49;98005.47;6178775;28;96860;-67
2021/11/04 20:12:50;;;;;;;;;3.00;3.00;;;;;16.22;34.62;97989.50;6173243;28;98250;-67
2021/11/04 20:15:54;;;;;;;;;3.00;3.00;;;;;16.26;34.08;98012.31;6171647;28;97327;-67
2021/11/04 20:18:57;;;;;;;;;4.00;4.00;;;;;16.20;34.30;98016.16;6179510;28;96962;-68
2021/11/04 20:22:02;;;;;;;;;3.00;2.00;;;;;16.17;33.93;98010.47;6178369;28;98653;-70
2021/11/04 20:25:11;;;;;;;;;2.00;2.00;;;;;16.26;33.37;98031.34;6178274;28;97509;-66
2021/11/04 20:28:16;;;;;;;;;2.00;2.00;;;;;16.35;33.77;98023.41;6167427;28;97994;-66
2021/11/04 20:31:20;;;;;;;;;2.00;2.00;;;;;16.38;32.93;98015.50;6162939;28;97771;-67